<?xml version='1.0' encoding='UTF-8'?><gpx version="1.1" creator="JPX - https://github.com/jenetics/jpx" xmlns="http://www.topografix.com/GPX/1/1"><trk><trkseg><trkpt lat="46.6042684" lon="12.4776146"><ele>1207.0</ele><time>2026-04-17T15:22:13.372Z</time></trkpt><trkpt lat="46.6042309" lon="12.477536"><ele>1207.0</ele><time>2026-04-17T15:22:15.396Z</time></trkpt><trkpt lat="46.6042021" lon="12.4774235"><ele>1207.0</ele><time>2026-04-17T15:22:18.333Z</time></trkpt><trkpt lat="46.6041323" lon="12.477348"><ele>1207.0</ele><time>2026-04-17T15:22:21.374Z</time></trkpt><trkpt lat="46.6040811" lon="12.4772547"><ele>1207.0</ele><time>2026-04-17T15:22:24.373Z</time></trkpt><trkpt lat="46.6040283" lon="12.4771735"><ele>1207.0</ele><time>2026-04-17T15:22:27.374Z</time></trkpt><trkpt lat="46.6039793" lon="12.4770887"><ele>1207.8571428571427</ele><time>2026-04-17T15:22:30.401Z</time></trkpt><trkpt lat="46.6039336" lon="12.4770006"><ele>1208.7142857142858</ele><time>2026-04-17T15:22:33.395Z</time></trkpt><trkpt lat="46.6038777" lon="12.476923"><ele>1209.5714285714284</ele><time>2026-04-17T15:22:36.371Z</time></trkpt><trkpt lat="46.6038192" lon="12.4768542"><ele>1210.4285714285713</ele><time>2026-04-17T15:22:39.395Z</time></trkpt><trkpt lat="46.6037753" lon="12.4767781"><ele>1211.2857142857142</ele><time>2026-04-17T15:22:42.387Z</time></trkpt><trkpt lat="46.6037245" lon="12.4767162"><ele>1212.142857142857</ele><time>2026-04-17T15:22:45.404Z</time></trkpt><trkpt lat="46.6036746" lon="12.4766506"><ele>1213.0</ele><time>2026-04-17T15:22:48.405Z</time></trkpt><trkpt lat="46.6036147" lon="12.4765678"><ele>1213.2857142857144</ele><time>2026-04-17T15:22:52.386Z</time></trkpt><trkpt lat="46.603561" lon="12.4764871"><ele>1213.5714285714284</ele><time>2026-04-17T15:22:55.38Z</time></trkpt><trkpt lat="46.6035098" lon="12.4764088"><ele>1213.857142857143</ele><time>2026-04-17T15:22:58.416Z</time></trkpt><trkpt lat="46.6034582" lon="12.4763201"><ele>1214.1428571428573</ele><time>2026-04-17T15:23:02.383Z</time></trkpt><trkpt lat="46.603398" lon="12.4762417"><ele>1214.4285714285716</ele><time>2026-04-17T15:23:06.416Z</time></trkpt><trkpt lat="46.6033492" lon="12.4761837"><ele>1214.7142857142858</ele><time>2026-04-17T15:23:09.373Z</time></trkpt><trkpt lat="46.603306" lon="12.476116"><ele>1215.0</ele><time>2026-04-17T15:23:12.398Z</time></trkpt><trkpt lat="46.6032598" lon="12.4760499"><ele>1216.5714285714287</ele><time>2026-04-17T15:23:15.397Z</time></trkpt><trkpt lat="46.6032013" lon="12.4759665"><ele>1218.142857142857</ele><time>2026-04-17T15:23:19.455Z</time></trkpt><trkpt lat="46.6031585" lon="12.475899"><ele>1219.7142857142858</ele><time>2026-04-17T15:23:22.4Z</time></trkpt><trkpt lat="46.6031152" lon="12.4758304"><ele>1221.2857142857142</ele><time>2026-04-17T15:23:25.414Z</time></trkpt><trkpt lat="46.6030666" lon="12.4757698"><ele>1222.857142857143</ele><time>2026-04-17T15:23:28.392Z</time></trkpt><trkpt lat="46.6030169" lon="12.4756908"><ele>1224.4285714285716</ele><time>2026-04-17T15:23:32.396Z</time></trkpt><trkpt lat="46.6029622" lon="12.4756184"><ele>1226.0</ele><time>2026-04-17T15:23:37.399Z</time></trkpt><trkpt lat="46.6029029" lon="12.4755653"><ele>1226.0</ele><time>2026-04-17T15:23:41.4Z</time></trkpt><trkpt lat="46.6028414" lon="12.4755088"><ele>1226.0</ele><time>2026-04-17T15:23:46.393Z</time></trkpt><trkpt lat="46.6027902" lon="12.4754512"><ele>1226.0</ele><time>2026-04-17T15:23:50.413Z</time></trkpt><trkpt lat="46.6027527" lon="12.4753608"><ele>1226.0</ele><time>2026-04-17T15:23:58.42Z</time></trkpt><trkpt lat="46.6026973" lon="12.4753092"><ele>1226.0</ele><time>2026-04-17T15:24:03.381Z</time></trkpt><trkpt lat="46.6026389" lon="12.475251"><ele>1226.0</ele><time>2026-04-17T15:24:09.412Z</time></trkpt><trkpt lat="46.6025721" lon="12.4752147"><ele>1226.0</ele><time>2026-04-17T15:24:13.373Z</time></trkpt><trkpt lat="46.6025119" lon="12.4751613"><ele>1230.2857142857142</ele><time>2026-04-17T15:24:17.368Z</time></trkpt><trkpt lat="46.6024584" lon="12.4750964"><ele>1234.5714285714284</ele><time>2026-04-17T15:24:22.373Z</time></trkpt><trkpt lat="46.6024033" lon="12.4750243"><ele>1238.8571428571427</ele><time>2026-04-17T15:24:27.373Z</time></trkpt><trkpt lat="46.6023388" lon="12.474984"><ele>1243.142857142857</ele><time>2026-04-17T15:24:32.372Z</time></trkpt><trkpt lat="46.602303" lon="12.4748788"><ele>1247.4285714285713</ele><time>2026-04-17T15:24:37.328Z</time></trkpt><trkpt lat="46.6022813" lon="12.4747837"><ele>1251.7142857142856</ele><time>2026-04-17T15:24:41.373Z</time></trkpt><trkpt lat="46.6022492" lon="12.4746953"><ele>1256.0</ele><time>2026-04-17T15:24:45.372Z</time></trkpt><trkpt lat="46.6022124" lon="12.4746207"><ele>1257.7142857142856</ele><time>2026-04-17T15:24:50.373Z</time></trkpt><trkpt lat="46.6021821" lon="12.4745282"><ele>1259.4285714285713</ele><time>2026-04-17T15:24:56.372Z</time></trkpt><trkpt lat="46.6021962" lon="12.4744295"><ele>1261.142857142857</ele><time>2026-04-17T15:25:01.374Z</time></trkpt><trkpt lat="46.6021904" lon="12.4743321"><ele>1262.8571428571427</ele><time>2026-04-17T15:25:05.392Z</time></trkpt><trkpt lat="46.6021691" lon="12.4742302"><ele>1264.5714285714284</ele><time>2026-04-17T15:25:09.373Z</time></trkpt><trkpt lat="46.6021432" lon="12.4741287"><ele>1266.2857142857142</ele><time>2026-04-17T15:25:13.368Z</time></trkpt><trkpt lat="46.6021155" lon="12.4740383"><ele>1268.0</ele><time>2026-04-17T15:25:17.374Z</time></trkpt><trkpt lat="46.6021003" lon="12.4739458"><ele>1268.0</ele><time>2026-04-17T15:25:22.373Z</time></trkpt><trkpt lat="46.6020911" lon="12.4738424"><ele>1268.0</ele><time>2026-04-17T15:25:28.374Z</time></trkpt><trkpt lat="46.6020631" lon="12.473747"><ele>1268.0</ele><time>2026-04-17T15:25:33.373Z</time></trkpt><trkpt lat="46.6020561" lon="12.4736468"><ele>1268.0</ele><time>2026-04-17T15:25:37.373Z</time></trkpt><trkpt lat="46.6020541" lon="12.4735529"><ele>1268.0</ele><time>2026-04-17T15:25:42.353Z</time></trkpt><trkpt lat="46.6020476" lon="12.4734557"><ele>1268.0</ele><time>2026-04-17T15:25:47.374Z</time></trkpt><trkpt lat="46.6020311" lon="12.4733387"><ele>1268.0</ele><time>2026-04-17T15:25:52.366Z</time></trkpt><trkpt lat="46.6020194" lon="12.4732466"><ele>1271.4285714285716</ele><time>2026-04-17T15:25:58.313Z</time></trkpt><trkpt lat="46.6020503" lon="12.4731574"><ele>1274.857142857143</ele><time>2026-04-17T15:26:03.373Z</time></trkpt><trkpt lat="46.6020773" lon="12.4730683"><ele>1278.2857142857142</ele><time>2026-04-17T15:26:10.372Z</time></trkpt><trkpt lat="46.602088" lon="12.472971"><ele>1281.7142857142858</ele><time>2026-04-17T15:26:16.348Z</time></trkpt><trkpt lat="46.6020882" lon="12.4728656"><ele>1285.142857142857</ele><time>2026-04-17T15:26:22.374Z</time></trkpt><trkpt lat="46.6020372" lon="12.4727855"><ele>1288.5714285714287</ele><time>2026-04-17T15:26:27.374Z</time></trkpt><trkpt lat="46.6020188" lon="12.4726976"><ele>1292.0</ele><time>2026-04-17T15:26:32.374Z</time></trkpt><trkpt lat="46.6020086" lon="12.4726064"><ele>1297.1428571428573</ele><time>2026-04-17T15:26:37.373Z</time></trkpt><trkpt lat="46.6019931" lon="12.4725148"><ele>1302.2857142857142</ele><time>2026-04-17T15:26:42.364Z</time></trkpt><trkpt lat="46.6019549" lon="12.4724388"><ele>1307.4285714285716</ele><time>2026-04-17T15:26:47.373Z</time></trkpt><trkpt lat="46.6018831" lon="12.4724036"><ele>1312.5714285714287</ele><time>2026-04-17T15:26:53.291Z</time></trkpt><trkpt lat="46.6018274" lon="12.4723506"><ele>1317.7142857142858</ele><time>2026-04-17T15:27:00.373Z</time></trkpt><trkpt lat="46.6017716" lon="12.472299"><ele>1322.857142857143</ele><time>2026-04-17T15:27:05.37Z</time></trkpt><trkpt lat="46.6017125" lon="12.4722659"><ele>1328.0</ele><time>2026-04-17T15:27:10.374Z</time></trkpt><trkpt lat="46.6016468" lon="12.4722248"><ele>1328.0</ele><time>2026-04-17T15:27:14.267Z</time></trkpt><trkpt lat="46.6015744" lon="12.4721941"><ele>1328.0</ele><time>2026-04-17T15:27:18.373Z</time></trkpt><trkpt lat="46.6015028" lon="12.4721682"><ele>1328.0</ele><time>2026-04-17T15:27:22.374Z</time></trkpt><trkpt lat="46.601777" lon="12.4722114"><ele>1328.0</ele><time>2026-04-17T15:27:23.374Z</time></trkpt><trkpt lat="46.6019078" lon="12.472234"><ele>1328.0</ele><time>2026-04-17T15:27:24.372Z</time></trkpt><trkpt lat="46.6019258" lon="12.4721157"><ele>1328.0</ele><time>2026-04-17T15:27:31.374Z</time></trkpt><trkpt lat="46.6019308" lon="12.4720241"><ele>1328.0</ele><time>2026-04-17T15:27:34.374Z</time></trkpt><trkpt lat="46.6019578" lon="12.4719366"><ele>1328.0</ele><time>2026-04-17T15:27:39.374Z</time></trkpt><trkpt lat="46.6019592" lon="12.4718418"><ele>1328.0</ele><time>2026-04-17T15:27:45.284Z</time></trkpt><trkpt lat="46.6019811" lon="12.4717513"><ele>1328.0</ele><time>2026-04-17T15:27:52.307Z</time></trkpt><trkpt lat="46.6019443" lon="12.4716681"><ele>1328.0</ele><time>2026-04-17T15:28:04.385Z</time></trkpt><trkpt lat="46.601929" lon="12.4715698"><ele>1330.5714285714284</ele><time>2026-04-17T15:28:11.373Z</time></trkpt><trkpt lat="46.6019931" lon="12.471508"><ele>1333.1428571428573</ele><time>2026-04-17T15:28:19.293Z</time></trkpt><trkpt lat="46.6020238" lon="12.4714252"><ele>1335.7142857142858</ele><time>2026-04-17T15:28:24.307Z</time></trkpt><trkpt lat="46.6020278" lon="12.4713331"><ele>1338.2857142857142</ele><time>2026-04-17T15:28:33.372Z</time></trkpt><trkpt lat="46.6019742" lon="12.4712384"><ele>1340.8571428571427</ele><time>2026-04-17T15:28:40.374Z</time></trkpt><trkpt lat="46.6019629" lon="12.4711468"><ele>1343.4285714285716</ele><time>2026-04-17T15:28:47.308Z</time></trkpt><trkpt lat="46.6019601" lon="12.4710322"><ele>1346.0</ele><time>2026-04-17T15:28:54.41Z</time></trkpt><trkpt lat="46.6019963" lon="12.4709436"><ele>1349.5714285714287</ele><time>2026-04-17T15:29:01.372Z</time></trkpt><trkpt lat="46.6020398" lon="12.470871"><ele>1353.142857142857</ele><time>2026-04-17T15:29:09.374Z</time></trkpt><trkpt lat="46.6020847" lon="12.4708016"><ele>1356.7142857142858</ele><time>2026-04-17T15:29:25.373Z</time></trkpt><trkpt lat="46.6020912" lon="12.4707085"><ele>1360.2857142857142</ele><time>2026-04-17T15:29:35.373Z</time></trkpt><trkpt lat="46.6020903" lon="12.4706135"><ele>1363.857142857143</ele><time>2026-04-17T15:29:45.374Z</time></trkpt><trkpt lat="46.6020907" lon="12.4705211"><ele>1367.4285714285713</ele><time>2026-04-17T15:29:59.374Z</time></trkpt><trkpt lat="46.6021063" lon="12.470426"><ele>1371.0</ele><time>2026-04-17T15:30:09.373Z</time></trkpt><trkpt lat="46.6021099" lon="12.47033"><ele>1374.2857142857142</ele><time>2026-04-17T15:30:21.395Z</time></trkpt><trkpt lat="46.6021213" lon="12.470235"><ele>1377.5714285714287</ele><time>2026-04-17T15:30:34.374Z</time></trkpt><trkpt lat="46.6021223" lon="12.4701348"><ele>1380.857142857143</ele><time>2026-04-17T15:30:47.372Z</time></trkpt><trkpt lat="46.6021137" lon="12.4700411"><ele>1384.142857142857</ele><time>2026-04-17T15:30:55.395Z</time></trkpt><trkpt lat="46.6021396" lon="12.4699375"><ele>1387.4285714285713</ele><time>2026-04-17T15:31:10.386Z</time></trkpt><trkpt lat="46.6021464" lon="12.469843"><ele>1390.7142857142858</ele><time>2026-04-17T15:31:21.373Z</time></trkpt><trkpt lat="46.6021503" lon="12.4697457"><ele>1394.0</ele><time>2026-04-17T15:31:32.373Z</time></trkpt><trkpt lat="46.6021448" lon="12.4696475"><ele>1398.7142857142858</ele><time>2026-04-17T15:31:38.417Z</time></trkpt><trkpt lat="46.6021384" lon="12.4695428"><ele>1403.4285714285713</ele><time>2026-04-17T15:31:52.418Z</time></trkpt><trkpt lat="46.6021373" lon="12.4694507"><ele>1408.142857142857</ele><time>2026-04-17T15:32:03.373Z</time></trkpt><trkpt lat="46.6021412" lon="12.4693576"><ele>1412.857142857143</ele><time>2026-04-17T15:32:10.374Z</time></trkpt><trkpt lat="46.6021489" lon="12.469254"><ele>1417.5714285714287</ele><time>2026-04-17T15:32:19.373Z</time></trkpt><trkpt lat="46.6021602" lon="12.4691585"><ele>1422.2857142857142</ele><time>2026-04-17T15:32:28.374Z</time></trkpt><trkpt lat="46.60217" lon="12.4690655"><ele>1427.0</ele><time>2026-04-17T15:32:35.376Z</time></trkpt><trkpt lat="46.6022042" lon="12.468986"><ele>1427.0</ele><time>2026-04-17T15:32:39.294Z</time></trkpt><trkpt lat="46.6022421" lon="12.4688926"><ele>1427.0</ele><time>2026-04-17T15:32:44.374Z</time></trkpt><trkpt lat="46.6022752" lon="12.4688044"><ele>1427.0</ele><time>2026-04-17T15:32:49.421Z</time></trkpt><trkpt lat="46.6023065" lon="12.4687009"><ele>1427.0</ele><time>2026-04-17T15:32:58.404Z</time></trkpt><trkpt lat="46.6023449" lon="12.4686011"><ele>1427.0</ele><time>2026-04-17T15:33:03.384Z</time></trkpt><trkpt lat="46.6024024" lon="12.4685482"><ele>1427.0</ele><time>2026-04-17T15:33:11.374Z</time></trkpt><trkpt lat="46.6024585" lon="12.4684688"><ele>1427.0</ele><time>2026-04-17T15:33:15.418Z</time></trkpt><trkpt lat="46.6024736" lon="12.4683649"><ele>1441.0</ele><time>2026-04-17T15:33:18.374Z</time></trkpt><trkpt lat="46.6025071" lon="12.4682693"><ele>1441.0</ele><time>2026-04-17T15:33:21.374Z</time></trkpt><trkpt lat="46.602552" lon="12.4681947"><ele>1441.0</ele><time>2026-04-17T15:33:24.374Z</time></trkpt><trkpt lat="46.6026" lon="12.4681262"><ele>1441.0</ele><time>2026-04-17T15:33:27.375Z</time></trkpt></trkseg></trk></gpx>